createdAt,value
2023-03-29T00:04:29.647Z,100359.46
2023-03-29T00:07:35.739Z,100358.58
2023-03-29T00:10:38.453Z,100361.48
2023-03-29T00:13:41.051Z,100358.00
2023-03-29T00:16:45.164Z,100341.42
2023-03-29T00:19:48.076Z,100347.88
2023-03-29T00:22:51.115Z,100349.74
2023-03-29T00:25:58.097Z,100348.52
2023-03-29T00:29:00.908Z,100349.03
2023-03-29T00:32:03.590Z,100349.20
2023-03-29T00:35:06.592Z,100350.73
2023-03-29T00:38:09.667Z,100348.78
2023-03-29T00:41:13.677Z,100347.04
2023-03-29T00:44:54.115Z,100342.17
2023-03-29T00:48:00.303Z,100341.12
2023-03-29T00:51:10.430Z,100335.55
2023-03-29T00:54:18.769Z,100330.35
2023-03-29T00:57:25.831Z,100331.08
2023-03-29T01:00:36.696Z,100327.78
2023-03-29T01:04:09.004Z,100325.38
2023-03-29T01:07:23.412Z,100319.48
2023-03-29T01:10:39.329Z,100316.89
2023-03-29T01:13:48.668Z,100318.30
2023-03-29T01:16:52.005Z,100313.45
2023-03-29T01:23:58.417Z,100303.82
2023-03-29T01:27:09.566Z,100303.66
2023-03-29T01:30:18.568Z,100297.39
2023-03-29T01:33:26.474Z,100293.58
2023-03-29T01:36:37.212Z,100288.92
2023-03-29T01:39:40.139Z,100288.18
2023-03-29T01:42:49.761Z,100283.11
2023-03-29T01:46:02.127Z,100278.98
2023-03-29T01:49:13.557Z,100276.23
2023-03-29T01:52:23.227Z,100275.34
2023-03-29T01:55:32.159Z,100270.11
2023-03-29T01:58:40.978Z,100267.27
2023-03-29T02:02:05.043Z,100264.11
2023-03-29T02:05:10.108Z,100265.00
2023-03-29T02:12:20.235Z,100251.11
2023-03-29T02:15:23.662Z,100253.17
2023-03-29T02:18:26.340Z,100249.25
2023-03-29T02:22:16.688Z,100250.52
2023-03-29T02:25:19.997Z,100246.91
2023-03-29T02:28:24.724Z,100245.05
2023-03-29T02:31:33.965Z,100239.98
2023-03-29T02:34:51.083Z,100240.25
2023-03-29T02:37:56.521Z,100237.88
2023-03-29T02:41:01.150Z,100233.92
2023-03-29T02:44:08.288Z,100226.38
2023-03-29T02:47:24.957Z,100225.48
2023-03-29T02:50:35.686Z,100223.55
2023-03-29T02:53:47.441Z,100218.89
2023-03-29T02:57:00.908Z,100211.52
2023-03-29T03:00:05.511Z,100214.54
2023-03-29T03:03:09.865Z,100206.19
2023-03-29T03:06:13.632Z,100204.84
2023-03-29T03:09:19.274Z,100204.61
2023-03-29T03:12:21.843Z,100204.14
2023-03-29T03:15:24.521Z,100199.79
2023-03-29T03:18:27.866Z,100197.30
2023-03-29T03:21:30.532Z,100193.63
2023-03-29T03:24:56.473Z,100169.96
2023-03-29T03:27:59.158Z,100181.77
2023-03-29T03:31:02.257Z,100176.93
2023-03-29T03:34:05.028Z,100175.51
2023-03-29T03:37:07.602Z,100167.46
2023-03-29T03:40:12.009Z,100160.42
2023-03-29T03:43:14.749Z,100159.62
2023-03-29T03:46:18.223Z,100157.64
2023-03-29T03:49:21.963Z,100157.07
2023-03-29T03:56:18.324Z,100154.53
2023-03-29T03:59:27.063Z,100162.63
2023-03-29T04:02:31.005Z,100159.16
2023-03-29T04:05:34.207Z,100163.15
2023-03-29T04:08:36.812Z,100160.33
2023-03-29T04:16:05.999Z,100150.35
2023-03-29T04:19:08.604Z,100150.39
2023-03-29T04:22:11.194Z,100151.64
2023-03-29T04:28:57.639Z,100145.73
2023-03-29T04:32:00.390Z,100140.86
2023-03-29T04:35:04.891Z,100135.66
2023-03-29T04:38:10.284Z,100128.59
2023-03-29T04:41:13.571Z,100118.73
2023-03-29T04:44:16.249Z,100118.96
2023-03-29T04:47:19.646Z,100122.98
2023-03-29T04:50:22.257Z,100121.58
2023-03-29T04:53:25.221Z,100118.86
2023-03-29T04:57:00.376Z,100120.27
2023-03-29T05:00:08.834Z,100120.30
2023-03-29T05:07:20.636Z,100119.30
2023-03-29T05:15:41.173Z,100124.45
2023-03-29T05:18:44.594Z,100124.27
2023-03-29T05:26:10.061Z,100124.35
2023-03-29T05:36:15.296Z,100125.98
2023-03-29T05:39:18.292Z,100126.39
2023-03-29T05:42:22.700Z,100125.95
2023-03-29T05:45:28.787Z,100122.23
2023-03-29T05:48:32.817Z,100117.53
2023-03-29T05:51:35.669Z,100113.49
2023-03-29T05:54:53.996Z,100111.76
2023-03-29T05:57:57.965Z,100112.12
2023-03-29T06:01:04.683Z,100104.75
2023-03-29T06:04:07.737Z,100100.98
2023-03-29T06:07:12.713Z,100102.77
2023-03-29T06:10:16.013Z,100107.17
2023-03-29T06:13:18.819Z,100102.90
2023-03-29T06:16:21.705Z,100100.70
2023-03-29T06:19:24.583Z,100103.73
2023-03-29T06:22:28.007Z,100098.58
2023-03-29T06:25:30.633Z,100101.70
2023-03-29T06:28:33.440Z,100100.84
2023-03-29T06:31:36.657Z,100103.78
2023-03-29T06:34:39.681Z,100104.25
2023-03-29T06:37:49.533Z,100098.20
2023-03-29T06:40:52.852Z,100095.20
2023-03-29T06:43:55.649Z,100093.06
2023-03-29T06:46:59.578Z,100087.81
2023-03-29T06:50:02.308Z,100081.00
2023-03-29T06:53:05.049Z,100080.52
2023-03-29T06:56:09.875Z,100077.63
2023-03-29T06:59:13.680Z,100077.83
2023-03-29T07:02:17.587Z,100077.70
2023-03-29T07:05:22.069Z,100074.39
2023-03-29T07:08:31.383Z,100072.31
2023-03-29T07:11:35.533Z,100075.49
2023-03-29T07:14:38.154Z,100075.72
2023-03-29T07:17:41.938Z,100072.25
2023-03-29T07:20:45.094Z,100069.48
2023-03-29T07:23:47.967Z,100073.34
2023-03-29T07:27:03.190Z,100073.25
2023-03-29T07:30:11.354Z,100078.20
2023-03-29T07:33:14.528Z,100074.77
2023-03-29T07:36:17.418Z,100077.73
2023-03-29T07:43:07.552Z,100074.09
2023-03-29T07:46:11.313Z,100071.80
2023-03-29T07:49:14.009Z,100071.56
2023-03-29T07:52:17.024Z,100068.71
2023-03-29T07:55:19.704Z,100068.83
2023-03-29T07:58:22.599Z,100067.61
2023-03-29T08:01:25.736Z,100070.33
2023-03-29T08:05:09.501Z,100066.77
2023-03-29T08:08:14.244Z,100068.38
2023-03-29T08:11:20.195Z,100062.66
2023-03-29T08:14:23.921Z,100060.09
2023-03-29T08:17:26.682Z,100058.46
2023-03-29T08:20:29.500Z,100059.93
2023-03-29T08:24:19.746Z,100054.42
2023-03-29T08:27:23.576Z,100049.95
2023-03-29T08:30:27.166Z,100053.73
2023-03-29T08:33:29.773Z,100052.24
2023-03-29T08:36:33.170Z,100045.17
2023-03-29T08:44:06.598Z,100047.77
2023-03-29T08:47:42.582Z,100045.17
2023-03-29T08:50:54.675Z,100045.11
2023-03-29T08:54:05.414Z,100043.94
2023-03-29T08:57:32.850Z,100040.66
2023-03-29T09:00:42.931Z,100045.20
2023-03-29T09:03:54.006Z,100041.19
2023-03-29T09:06:57.945Z,100040.91
2023-03-29T09:10:00.808Z,100042.95
2023-03-29T09:13:21.515Z,100043.65
2023-03-29T09:16:45.341Z,100041.20
2023-03-29T09:19:54.053Z,100036.58
2023-03-29T09:23:24.434Z,100035.45
2023-03-29T09:26:39.498Z,100030.98
2023-03-29T09:33:50.550Z,100024.50
2023-03-29T09:36:56.917Z,100023.35
2023-03-29T09:40:02.042Z,100024.77
2023-03-29T09:43:12.381Z,100026.59
2023-03-29T09:46:40.775Z,100029.55
2023-03-29T09:53:52.442Z,100013.86
2023-03-29T09:56:55.133Z,100011.21
2023-03-29T10:00:01.898Z,100006.94
2023-03-29T10:03:07.970Z,100001.45
2023-03-29T10:06:12.697Z,99989.20
2023-03-29T10:09:20.067Z,99988.14
2023-03-29T10:12:23.198Z,99981.66
2023-03-29T10:15:30.392Z,99979.40
2023-03-29T10:18:44.033Z,99975.02
2023-03-29T10:21:52.906Z,99976.23
2023-03-29T10:24:57.242Z,99970.64
2023-03-29T10:28:07.526Z,99963.64
2023-03-29T10:31:18.920Z,99955.92
2023-03-29T10:34:26.331Z,99947.41
2023-03-29T10:37:29.209Z,99946.00
2023-03-29T10:40:34.189Z,99942.56
2023-03-29T10:43:40.012Z,99940.86
2023-03-29T10:46:44.278Z,99934.34
2023-03-29T10:49:53.209Z,99933.44
2023-03-29T10:52:57.798Z,99932.81
2023-03-29T10:56:23.209Z,99929.11
2023-03-29T10:59:54.005Z,99930.94
2023-03-29T11:03:16.993Z,99923.66
2023-03-29T11:06:33.137Z,99908.65
2023-03-29T11:09:53.317Z,99916.17
2023-03-29T11:13:08.564Z,99920.75
2023-03-29T11:16:30.264Z,99910.28
2023-03-29T11:19:44.655Z,99903.36
2023-03-29T11:23:18.287Z,99901.48
2023-03-29T11:26:27.268Z,99900.56
2023-03-29T11:30:14.400Z,99895.91
2023-03-29T11:33:29.236Z,99893.91
2023-03-29T11:36:50.498Z,99892.55
2023-03-29T11:40:13.782Z,99886.11
2023-03-29T11:43:28.071Z,99885.98
2023-03-29T11:46:42.704Z,99880.98
2023-03-29T11:49:56.342Z,99875.55
2023-03-29T11:53:07.115Z,99863.52
2023-03-29T11:56:19.734Z,99869.02
2023-03-29T11:59:35.806Z,99858.42
2023-03-29T12:02:49.508Z,99857.40
2023-03-29T12:05:54.027Z,99855.44
2023-03-29T12:09:00.654Z,99853.84
2023-03-29T12:12:19.991Z,99851.38
2023-03-29T12:15:24.967Z,99853.17
2023-03-29T12:18:33.193Z,99849.40
2023-03-29T12:21:36.830Z,99850.16
2023-03-29T12:24:43.573Z,99847.75
2023-03-29T12:28:14.022Z,99832.38
2023-03-29T12:31:34.620Z,99837.98
2023-03-29T12:35:32.130Z,99822.41
2023-03-29T12:38:37.427Z,99826.17
2023-03-29T12:42:19.422Z,99824.94
2023-03-29T12:45:33.379Z,99817.09
2023-03-29T12:48:41.734Z,99824.84
2023-03-29T12:51:44.576Z,99815.91
2023-03-29T12:54:57.303Z,99826.12
2023-03-29T12:58:05.532Z,99819.89
2023-03-29T13:05:29.675Z,99818.42
2023-03-29T13:08:38.818Z,99809.76
2023-03-29T13:11:42.739Z,99811.20
2023-03-29T13:14:51.835Z,99818.02
2023-03-29T13:18:14.130Z,99815.02
2023-03-29T13:21:35.548Z,99817.48
2023-03-29T13:24:47.269Z,99813.91
2023-03-29T13:28:04.733Z,99814.91
2023-03-29T13:31:28.812Z,99820.83
2023-03-29T13:34:53.484Z,99821.24
2023-03-29T13:38:18.178Z,99821.19
2023-03-29T13:41:43.859Z,99825.92
2023-03-29T13:44:49.198Z,99814.50
2023-03-29T13:48:05.607Z,99803.73
2023-03-29T13:51:18.069Z,99802.13
2023-03-29T13:54:32.449Z,99796.26
2023-03-29T13:57:40.143Z,99793.39
2023-03-29T14:00:51.368Z,99781.96
2023-03-29T14:03:55.543Z,99781.94
2023-03-29T14:06:59.135Z,99772.73
2023-03-29T14:10:02.225Z,99765.98
2023-03-29T14:13:05.143Z,99769.31
2023-03-29T14:16:11.663Z,99768.55
2023-03-29T14:19:18.414Z,99762.98
2023-03-29T14:22:21.972Z,99757.13
2023-03-29T14:25:25.545Z,99753.84
2023-03-29T14:28:29.006Z,99748.73
2023-03-29T14:31:36.123Z,99748.13
2023-03-29T14:34:40.189Z,99749.44
2023-03-29T14:37:44.206Z,99758.63
2023-03-29T14:40:47.070Z,99760.58
2023-03-29T14:43:50.732Z,99756.64
2023-03-29T14:46:54.253Z,99757.05
2023-03-29T14:50:01.911Z,99756.64
2023-03-29T14:53:06.164Z,99758.84
2023-03-29T14:56:13.798Z,99752.86
2023-03-29T14:59:28.981Z,99750.39
2023-03-29T15:02:33.568Z,99748.30
2023-03-29T15:05:41.081Z,99742.16
2023-03-29T15:08:54.399Z,99745.20
2023-03-29T15:12:04.754Z,99741.14
2023-03-29T15:15:12.039Z,99755.91
2023-03-29T15:18:17.181Z,99749.98
2023-03-29T15:21:22.200Z,99748.59
2023-03-29T15:24:32.841Z,99749.53
2023-03-29T15:27:42.656Z,99740.84
2023-03-29T15:30:54.249Z,99742.19
2023-03-29T15:34:10.409Z,99752.71
2023-03-29T15:37:13.271Z,99748.66
2023-03-29T15:40:17.310Z,99752.77
2023-03-29T15:43:21.707Z,99749.21
2023-03-29T15:46:24.436Z,99749.55
2023-03-29T15:49:27.609Z,99746.84
2023-03-29T15:52:30.511Z,99749.69
2023-03-29T15:55:33.229Z,99752.75
2023-03-29T15:58:37.425Z,99749.88
2023-03-29T16:01:41.801Z,99750.52
2023-03-29T16:04:44.831Z,99749.64
2023-03-29T16:07:47.581Z,99748.48
2023-03-29T16:10:50.685Z,99748.30
2023-03-29T16:13:53.516Z,99744.24
2023-03-29T16:17:06.510Z,99740.16
2023-03-29T16:20:13.077Z,99737.02
2023-03-29T16:23:23.613Z,99745.75
2023-03-29T16:26:27.029Z,99742.36
2023-03-29T16:29:32.455Z,99737.34
2023-03-29T16:32:38.000Z,99734.85
2023-03-29T16:35:41.035Z,99733.20
2023-03-29T16:38:45.418Z,99726.84
2023-03-29T16:41:54.657Z,99715.39
2023-03-29T16:45:02.927Z,99711.73
2023-03-29T16:48:13.838Z,99708.27
2023-03-29T16:51:21.110Z,99706.20
2023-03-29T16:54:30.448Z,99696.11
2023-03-29T16:57:35.116Z,99700.10
2023-03-29T17:00:42.159Z,99694.17
2023-03-29T17:03:49.443Z,99699.79
2023-03-29T17:06:52.361Z,99694.20
2023-03-29T17:09:58.363Z,99689.74
2023-03-29T17:13:01.196Z,99688.09
2023-03-29T17:16:07.414Z,99690.17
2023-03-29T17:19:18.250Z,99687.88
2023-03-29T17:22:27.839Z,99683.39
2023-03-29T17:25:39.547Z,99705.88
2023-03-29T17:28:47.536Z,99705.60
2023-03-29T17:32:05.958Z,99707.05
2023-03-29T17:35:15.403Z,99714.80
2023-03-29T17:42:00.866Z,99706.73
2023-03-29T17:45:08.820Z,99706.12
2023-03-29T17:48:12.654Z,99708.87
2023-03-29T17:51:16.456Z,99706.40
2023-03-29T17:54:21.836Z,99704.92
2023-03-29T17:57:29.700Z,99707.41
2023-03-29T18:00:41.018Z,99703.92
2023-03-29T18:03:44.022Z,99699.77
2023-03-29T18:06:47.093Z,99704.27
2023-03-29T18:10:17.666Z,99703.42
2023-03-29T18:13:25.580Z,99708.50
2023-03-29T18:19:42.123Z,99704.19
2023-03-29T18:22:45.054Z,99702.80
2023-03-29T18:25:48.240Z,99705.09
2023-03-29T18:28:51.364Z,99709.91
2023-03-29T18:31:54.088Z,99708.14
2023-03-29T18:34:57.207Z,99713.70
2023-03-29T18:37:59.828Z,99712.52
2023-03-29T18:41:03.930Z,99711.46
2023-03-29T18:44:07.727Z,99707.24
2023-03-29T18:47:10.713Z,99704.45
2023-03-29T18:50:13.352Z,99705.55
2023-03-29T18:53:16.793Z,99701.24
2023-03-29T18:56:19.702Z,99700.80
2023-03-29T18:59:28.969Z,99699.90
2023-03-29T19:02:31.573Z,99697.83
2023-03-29T19:05:39.214Z,99679.75
2023-03-29T19:08:42.312Z,99692.85
2023-03-29T19:11:47.917Z,99689.32
2023-03-29T19:14:50.739Z,99684.75
2023-03-29T19:17:53.381Z,99683.23
2023-03-29T19:20:56.298Z,99684.39
2023-03-29T19:24:00.971Z,99677.00
2023-03-29T19:27:04.261Z,99673.83
2023-03-29T19:30:07.684Z,99678.48
2023-03-29T19:38:39.619Z,99677.63
2023-03-29T19:45:36.815Z,99673.00
2023-03-29T19:48:40.231Z,99675.05
2023-03-29T19:52:30.447Z,99663.27
2023-03-29T19:55:33.739Z,99669.25
2023-03-29T19:58:37.647Z,99660.95
2023-03-29T20:01:42.864Z,99658.40
2023-03-29T20:04:46.518Z,99660.16
2023-03-29T20:07:49.261Z,99656.19
2023-03-29T20:11:10.571Z,99652.23
2023-03-29T20:14:13.575Z,99647.25
2023-03-29T20:17:16.738Z,99648.02
2023-03-29T20:20:21.505Z,99643.97
2023-03-29T20:23:24.359Z,99649.50
2023-03-29T20:26:29.252Z,99648.92
2023-03-29T20:29:34.121Z,99644.99
2023-03-29T20:32:36.774Z,99642.54
2023-03-29T20:35:42.803Z,99642.30
2023-03-29T20:38:45.585Z,99635.36
2023-03-29T20:41:48.833Z,99623.86
2023-03-29T20:44:51.580Z,99623.37
2023-03-29T20:48:03.539Z,99621.52
2023-03-29T20:51:11.184Z,99621.08
2023-03-29T20:54:13.812Z,99613.23
2023-03-29T20:57:19.777Z,99614.14
2023-03-29T21:00:22.744Z,99612.31
2023-03-29T21:07:31.015Z,99600.56
2023-03-29T21:10:33.795Z,99595.23
2023-03-29T21:13:37.268Z,99591.69
2023-03-29T21:16:42.545Z,99587.86
2023-03-29T21:23:21.770Z,99580.35
2023-03-29T21:26:24.431Z,99578.70
2023-03-29T21:37:15.272Z,99566.31
2023-03-29T21:40:18.116Z,99563.20
2023-03-29T21:43:21.456Z,99558.32
2023-03-29T21:46:25.856Z,99553.94
2023-03-29T21:50:17.659Z,99559.34
2023-03-29T21:53:20.411Z,99554.02
2023-03-29T21:56:23.211Z,99553.16
2023-03-29T21:59:28.938Z,99557.98
2023-03-29T22:13:03.710Z,99543.83
2023-03-29T22:16:07.723Z,99541.49
2023-03-29T22:19:11.871Z,99539.17
2023-03-29T22:22:14.828Z,99537.66
2023-03-29T22:25:19.472Z,99535.56
2023-03-29T22:28:22.091Z,99538.48
2023-03-29T22:31:26.470Z,99533.21
2023-03-29T22:34:30.139Z,99534.90
2023-03-29T22:37:33.357Z,99534.86
2023-03-29T22:40:41.261Z,99529.66
2023-03-29T22:43:44.797Z,99518.39
2023-03-29T22:46:47.532Z,99517.40
2023-03-29T22:49:50.095Z,99529.36
2023-03-29T22:58:34.239Z,99525.00
2023-03-29T23:01:36.957Z,99513.39
2023-03-29T23:04:39.594Z,99509.23
2023-03-29T23:07:42.186Z,99506.54
2023-03-29T23:10:46.239Z,99505.81
2023-03-29T23:13:49.025Z,99500.96
2023-03-29T23:16:51.685Z,99499.84
2023-03-29T23:20:17.892Z,99494.27
2023-03-29T23:23:21.873Z,99493.77
2023-03-29T23:26:24.442Z,99492.76
2023-03-29T23:29:27.430Z,99490.45
2023-03-29T23:32:30.389Z,99485.04
2023-03-29T23:35:33.414Z,99484.46
2023-03-29T23:38:38.771Z,99481.92
2023-03-29T23:41:41.403Z,99476.61
2023-03-29T23:44:44.061Z,99476.29
2023-03-29T23:47:46.736Z,99471.70
2023-03-29T23:50:50.181Z,99467.98
2023-03-29T23:53:52.772Z,99471.98
2023-03-29T23:56:55.371Z,99469.34
